createdAt,value
2023-04-15T00:02:20.404Z,9.90
2023-04-15T00:04:49.853Z,11.20
2023-04-15T00:07:18.601Z,8.30
2023-04-15T00:09:47.164Z,9.20
2023-04-15T00:12:15.659Z,9.30
2023-04-15T00:14:45.361Z,10.70
2023-04-15T00:17:14.324Z,8.80
2023-04-15T00:20:08.603Z,10.60
2023-04-15T00:22:37.124Z,10.70
2023-04-15T00:25:05.860Z,10.70
2023-04-15T00:27:52.067Z,10.50
2023-04-15T00:30:21.181Z,9.30
2023-04-15T00:32:49.861Z,10.10
2023-04-15T00:35:20.991Z,10.20
2023-04-15T00:37:49.359Z,10.10
2023-04-15T00:40:19.887Z,11.30
2023-04-15T00:42:48.556Z,10.90
2023-04-15T00:45:17.366Z,8.90
2023-04-15T00:47:46.086Z,8.60
2023-04-15T00:50:15.838Z,10.20
2023-04-15T00:52:44.350Z,8.80
2023-04-15T00:55:13.243Z,8.70
2023-04-15T00:57:41.825Z,9.50
2023-04-15T01:00:12.210Z,11.40
2023-04-15T01:02:41.404Z,13.20
2023-04-15T01:05:10.437Z,12.20
2023-04-15T01:07:38.832Z,12.30
2023-04-15T01:10:09.354Z,12.90
2023-04-15T01:12:38.236Z,13.50
2023-04-15T01:15:08.359Z,12.30
2023-04-15T01:17:37.753Z,14.90
2023-04-15T01:20:12.801Z,13.00
2023-04-15T01:22:41.685Z,15.40
2023-04-15T01:25:33.824Z,14.70
2023-04-15T01:28:02.598Z,15.00
2023-04-15T01:30:34.936Z,13.90
2023-04-15T01:33:03.507Z,15.20
2023-04-15T01:35:32.556Z,16.70
2023-04-15T01:38:10.661Z,16.70
2023-04-15T01:40:39.838Z,15.00
2023-04-15T01:43:08.434Z,16.30
2023-04-15T01:45:37.229Z,16.70
2023-04-15T01:48:07.314Z,20.20
2023-04-15T01:50:40.038Z,25.10
2023-04-15T01:53:08.915Z,30.20
2023-04-15T01:56:02.607Z,36.80
2023-04-15T01:58:31.786Z,41.80
2023-04-15T02:01:00.218Z,56.40
2023-04-15T02:03:29.916Z,64.30
2023-04-15T02:05:58.973Z,72.40
2023-04-15T02:08:27.865Z,73.50
2023-04-15T02:10:56.256Z,77.70
2023-04-15T02:13:24.822Z,83.80
2023-04-15T02:15:55.859Z,79.60
2023-04-15T02:18:24.253Z,78.60
2023-04-15T02:20:53.449Z,85.90
2023-04-15T02:23:21.834Z,90.70
2023-04-15T02:25:53.580Z,86.50
2023-04-15T02:28:22.790Z,94.20
2023-04-15T02:30:53.554Z,89.00
2023-04-15T02:33:22.408Z,81.60
2023-04-15T02:35:51.198Z,97.40
2023-04-15T02:38:19.918Z,94.00
2023-04-15T02:40:51.281Z,100.60
2023-04-15T02:43:20.897Z,100.60
2023-04-15T02:45:49.858Z,97.20
2023-04-15T02:48:20.425Z,96.50
2023-04-15T02:50:49.047Z,104.30
2023-04-15T02:53:18.140Z,100.80
2023-04-15T02:55:46.824Z,87.50
2023-04-15T02:58:20.485Z,94.00
2023-04-15T03:00:51.191Z,96.30
2023-04-15T03:03:19.635Z,100.70
2023-04-15T03:05:53.440Z,100.40
2023-04-15T03:08:22.575Z,109.90
2023-04-15T03:10:53.374Z,113.90
2023-04-15T03:13:24.630Z,109.20
2023-04-15T03:15:53.340Z,103.50
2023-04-15T03:18:26.410Z,111.10
2023-04-15T03:20:55.609Z,106.80
2023-04-15T03:23:25.747Z,105.40
2023-04-15T03:25:59.312Z,111.30
2023-04-15T03:28:29.945Z,111.00
2023-04-15T03:30:59.784Z,107.40
2023-04-15T03:33:28.444Z,110.90
2023-04-15T03:35:57.333Z,109.10
2023-04-15T03:38:25.804Z,107.50
2023-04-15T03:40:54.392Z,105.20
2023-04-15T03:43:22.767Z,115.40
2023-04-15T03:45:51.565Z,110.70
2023-04-15T03:48:19.981Z,108.90
2023-04-15T03:50:48.829Z,104.60
2023-04-15T03:53:17.211Z,107.70
2023-04-15T03:55:51.357Z,109.70
2023-04-15T03:58:20.929Z,111.40
2023-04-15T04:00:52.374Z,116.00
2023-04-15T04:03:21.745Z,113.50
2023-04-15T04:05:51.792Z,120.50
2023-04-15T04:08:23.162Z,105.20
2023-04-15T04:10:51.843Z,113.90
2023-04-15T04:13:21.652Z,120.30
2023-04-15T04:15:50.992Z,117.10
2023-04-15T04:18:19.623Z,117.60
2023-04-15T04:20:52.525Z,125.10
2023-04-15T04:23:20.892Z,121.50
2023-04-15T04:25:49.799Z,121.60
2023-04-15T04:28:19.251Z,124.40
2023-04-15T04:30:48.688Z,123.40
2023-04-15T04:33:17.325Z,122.80
2023-04-15T04:35:46.977Z,126.40
2023-04-15T04:38:15.870Z,126.20
2023-04-15T04:40:45.016Z,126.10
2023-04-15T04:43:14.395Z,122.50
2023-04-15T04:45:43.305Z,118.20
2023-04-15T04:48:12.579Z,123.50
2023-04-15T04:51:10.847Z,130.00
2023-04-15T04:53:39.429Z,127.10
2023-04-15T04:56:07.904Z,123.20
2023-04-15T04:58:36.488Z,119.70
2023-04-15T05:01:04.992Z,116.40
2023-04-15T05:03:59.248Z,124.00
2023-04-15T05:06:28.133Z,119.00
2023-04-15T05:08:58.769Z,118.20
2023-04-15T05:11:27.156Z,122.00
2023-04-15T05:14:29.659Z,123.30
2023-04-15T05:17:06.245Z,117.80
2023-04-15T05:19:35.907Z,121.50
2023-04-15T05:22:04.497Z,126.30
2023-04-15T05:24:35.167Z,132.30
2023-04-15T05:27:04.530Z,141.30
2023-04-15T05:29:33.633Z,135.50
2023-04-15T05:32:02.613Z,131.70
2023-04-15T05:34:33.247Z,127.40
2023-04-15T05:37:01.709Z,126.40
2023-04-15T05:39:31.348Z,133.00
2023-04-15T05:42:01.410Z,123.90
2023-04-15T05:44:30.267Z,126.50
2023-04-15T05:46:59.904Z,123.40
2023-04-15T05:49:57.305Z,136.00
2023-04-15T05:52:26.101Z,132.80
2023-04-15T05:55:39.950Z,129.10
2023-04-15T05:58:14.470Z,128.70
2023-04-15T06:00:44.218Z,129.90
2023-04-15T06:03:13.059Z,136.60
2023-04-15T06:05:41.548Z,130.20
2023-04-15T06:08:09.955Z,136.30
2023-04-15T06:10:39.904Z,134.80
2023-04-15T06:13:08.839Z,133.40
2023-04-15T06:15:53.223Z,134.50
2023-04-15T06:18:22.595Z,127.70
2023-04-15T06:20:52.001Z,125.40
2023-04-15T06:23:20.470Z,123.00
2023-04-15T06:25:49.884Z,134.80
2023-04-15T06:28:18.665Z,134.20
2023-04-15T06:30:47.472Z,129.20
2023-04-15T06:33:16.259Z,134.90
2023-04-15T06:35:46.120Z,131.60
2023-04-15T06:38:15.059Z,144.50
2023-04-15T06:40:43.751Z,139.70
2023-04-15T06:43:13.465Z,138.50
2023-04-15T06:45:42.376Z,137.20
2023-04-15T06:48:11.361Z,143.70
2023-04-15T06:50:41.056Z,150.40
2023-04-15T06:53:09.921Z,145.50
2023-04-15T06:55:42.751Z,149.50
2023-04-15T06:58:11.798Z,152.50
2023-04-15T07:00:40.946Z,129.30
2023-04-15T07:03:11.466Z,141.20
2023-04-15T07:05:40.135Z,137.80
2023-04-15T07:08:19.073Z,155.60
2023-04-15T07:10:52.119Z,139.70
2023-04-15T07:13:24.289Z,140.70
2023-04-15T07:15:53.698Z,150.20
2023-04-15T07:18:24.945Z,149.30
2023-04-15T07:20:55.187Z,140.40
2023-04-15T07:23:34.519Z,132.20
2023-04-15T07:26:11.393Z,129.80
2023-04-15T07:28:40.777Z,115.00
2023-04-15T07:31:09.816Z,127.90
2023-04-15T07:33:38.467Z,121.50
2023-04-15T07:36:10.066Z,119.70
2023-04-15T07:38:40.362Z,128.90
2023-04-15T07:41:09.945Z,122.60
2023-04-15T07:43:45.590Z,121.30
2023-04-15T07:46:14.219Z,118.50
2023-04-15T07:48:42.884Z,115.80
2023-04-15T07:51:13.401Z,114.00
2023-04-15T07:53:42.697Z,118.60
2023-04-15T07:56:11.689Z,121.50
2023-04-15T07:58:40.568Z,121.50
2023-04-15T08:01:09.911Z,133.90
2023-04-15T08:03:40.566Z,143.60
2023-04-15T08:06:12.785Z,145.70
2023-04-15T08:09:31.028Z,147.50
2023-04-15T08:11:59.910Z,149.00
2023-04-15T08:14:31.540Z,129.20
2023-04-15T08:17:01.889Z,136.20
2023-04-15T08:19:31.090Z,133.10
2023-04-15T08:21:59.579Z,133.90
2023-04-15T08:24:28.252Z,139.50
2023-04-15T08:26:59.194Z,141.40
2023-04-15T08:29:28.014Z,135.80
2023-04-15T08:31:57.112Z,134.20
2023-04-15T08:34:25.974Z,138.00
2023-04-15T08:36:54.862Z,120.30
2023-04-15T08:39:23.644Z,128.50
2023-04-15T08:42:02.799Z,127.80
2023-04-15T08:44:34.929Z,121.10
2023-04-15T08:47:08.002Z,137.20
2023-04-15T08:49:41.947Z,137.20
2023-04-15T08:52:11.139Z,129.70
2023-04-15T08:54:40.452Z,131.30
2023-04-15T08:57:10.592Z,131.20
2023-04-15T08:59:40.380Z,133.30
2023-04-15T09:02:09.734Z,102.50
2023-04-15T09:04:38.224Z,104.60
2023-04-15T09:07:08.579Z,109.90
2023-04-15T09:10:03.451Z,114.50
2023-04-15T09:12:37.023Z,121.80
2023-04-15T09:15:06.707Z,118.80
2023-04-15T09:17:35.957Z,149.80
2023-04-15T09:20:19.092Z,150.70
2023-04-15T09:22:50.230Z,136.20
2023-04-15T09:25:25.181Z,156.30
2023-04-15T09:28:02.256Z,145.90
2023-04-15T09:30:31.216Z,141.40
2023-04-15T09:33:11.552Z,146.30
2023-04-15T09:36:06.021Z,139.20
2023-04-15T09:38:34.728Z,138.40
2023-04-15T09:41:03.897Z,132.60
2023-04-15T09:43:40.513Z,143.50
2023-04-15T09:46:08.990Z,139.30
2023-04-15T09:48:38.053Z,149.70
2023-04-15T09:51:06.926Z,123.50
2023-04-15T09:53:37.627Z,137.00
2023-04-15T09:56:10.798Z,149.20
2023-04-15T09:58:39.743Z,144.30
2023-04-15T10:01:35.077Z,133.10
2023-04-15T10:04:48.249Z,133.90
2023-04-15T10:07:24.505Z,137.70
2023-04-15T10:10:18.639Z,134.10
2023-04-15T10:12:48.546Z,146.90
2023-04-15T10:15:17.971Z,133.10
2023-04-15T10:25:37.909Z,131.70
2023-04-15T10:28:32.791Z,125.90
2023-04-15T10:31:03.232Z,120.90
2023-04-15T10:34:23.439Z,123.70
2023-04-15T10:36:58.592Z,157.00
2023-04-15T10:39:47.290Z,150.80
2023-04-15T10:43:32.162Z,143.50
2023-04-15T10:46:00.648Z,140.70
2023-04-15T10:49:07.018Z,149.00
2023-04-15T10:51:41.957Z,140.60
2023-04-15T10:54:30.598Z,154.20
2023-04-15T10:57:02.917Z,137.90
2023-04-15T10:59:39.127Z,150.30
2023-04-15T11:02:08.727Z,127.10
2023-04-15T11:05:01.096Z,140.90
2023-04-15T11:07:56.313Z,127.70
2023-04-15T11:10:31.536Z,134.70
2023-04-15T11:13:16.344Z,139.20
2023-04-15T11:15:45.998Z,133.50
2023-04-15T11:18:24.266Z,132.90
2023-04-15T11:20:57.734Z,149.30
2023-04-15T11:23:41.037Z,132.80
2023-04-15T11:26:12.460Z,138.70
2023-04-15T11:28:43.420Z,137.10
2023-04-15T11:31:18.371Z,140.70
2023-04-15T11:34:37.705Z,141.50
2023-04-15T11:37:08.111Z,139.10
2023-04-15T11:39:37.873Z,129.70
2023-04-15T11:42:17.640Z,130.10
2023-04-15T11:44:46.523Z,122.80
2023-04-15T11:47:25.354Z,133.50
2023-04-15T11:49:54.014Z,131.10
2023-04-15T11:57:32.011Z,140.30
2023-04-15T12:00:00.737Z,130.20
2023-04-15T12:02:33.512Z,125.50
2023-04-15T12:10:12.984Z,107.60
2023-04-15T12:12:41.797Z,120.90
2023-04-15T12:19:57.461Z,108.30
2023-04-15T12:26:54.461Z,101.40
2023-04-15T12:34:10.044Z,99.70
2023-04-15T12:36:38.578Z,99.50
2023-04-15T12:39:07.250Z,104.20
2023-04-15T12:41:35.959Z,87.90
2023-04-15T12:44:10.145Z,96.40
2023-04-15T12:47:03.886Z,91.70
2023-04-15T12:49:33.123Z,90.20
2023-04-15T12:52:03.560Z,86.80
2023-04-15T13:00:19.062Z,79.50
2023-04-15T13:02:48.209Z,79.80
2023-04-15T13:05:17.667Z,67.90
2023-04-15T13:07:46.652Z,75.80
2023-04-15T13:10:15.249Z,68.30
2023-04-15T13:12:43.826Z,66.20
2023-04-15T13:15:13.536Z,57.60
2023-04-15T13:17:42.138Z,51.70
2023-04-15T13:20:11.114Z,50.40
2023-04-15T13:22:39.714Z,52.40
2023-04-15T13:25:09.451Z,50.70
2023-04-15T13:27:37.733Z,46.70
2023-04-15T13:30:07.798Z,49.90
2023-04-15T13:32:36.417Z,46.20
2023-04-15T13:35:06.018Z,48.10
2023-04-15T13:37:34.487Z,49.50
2023-04-15T13:40:03.465Z,43.70
2023-04-15T13:42:31.926Z,43.10
2023-04-15T13:45:01.752Z,42.60
2023-04-15T13:47:30.171Z,45.00
2023-04-15T13:49:59.078Z,41.80
2023-04-15T13:52:27.907Z,41.60
2023-04-15T13:55:08.303Z,39.50
2023-04-15T13:57:46.027Z,42.40
2023-04-15T14:00:15.936Z,38.00
2023-04-15T14:03:38.411Z,34.10
2023-04-15T14:06:50.162Z,31.50
2023-04-15T14:09:18.611Z,30.20
2023-04-15T14:11:47.497Z,29.80
2023-04-15T14:14:16.361Z,30.70
2023-04-15T14:16:44.988Z,26.40
2023-04-15T14:19:34.088Z,26.20
2023-04-15T14:22:03.735Z,29.80
2023-04-15T14:24:32.133Z,24.30
2023-04-15T14:27:00.596Z,25.20
2023-04-15T14:29:29.623Z,20.50
2023-04-15T14:32:11.209Z,22.40
2023-04-15T14:34:41.299Z,18.60
2023-04-15T14:37:37.943Z,17.00
2023-04-15T14:40:32.228Z,16.10
2023-04-15T14:43:01.029Z,16.50
2023-04-15T14:45:30.858Z,17.40
2023-04-15T14:48:00.614Z,14.00
2023-04-15T14:50:31.250Z,13.40
2023-04-15T14:53:01.102Z,13.80
2023-04-15T14:55:29.702Z,13.20
2023-04-15T14:57:58.502Z,12.70
2023-04-15T15:00:27.257Z,12.60
2023-04-15T15:02:56.788Z,11.90
2023-04-15T15:05:26.037Z,11.20
2023-04-15T15:07:55.265Z,10.80
2023-04-15T15:10:46.679Z,10.10
2023-04-15T15:13:19.470Z,11.40
2023-04-15T15:15:52.196Z,11.80
2023-04-15T15:18:21.678Z,10.10
2023-04-15T15:20:51.439Z,10.10
2023-04-15T15:23:21.873Z,9.30
2023-04-15T15:25:50.486Z,9.40
2023-04-15T15:28:19.055Z,7.50
2023-04-15T15:30:48.246Z,8.50
2023-04-15T15:33:18.123Z,10.00
2023-04-15T15:35:47.480Z,9.20
2023-04-15T15:38:16.553Z,7.50
2023-04-15T15:40:45.369Z,9.00
2023-04-15T15:43:14.075Z,7.50
2023-04-15T15:45:42.828Z,8.40
2023-04-15T15:48:39.043Z,7.60
2023-04-15T15:54:02.462Z,8.10
2023-04-15T15:56:31.243Z,8.10
2023-04-15T15:59:01.712Z,6.80
2023-04-15T16:01:30.525Z,5.90
2023-04-15T16:03:59.999Z,6.50
2023-04-15T16:06:29.127Z,6.50
2023-04-15T16:08:57.759Z,6.10
2023-04-15T16:11:26.646Z,5.20
2023-04-15T16:13:55.689Z,5.90
2023-04-15T16:16:24.551Z,5.90
2023-04-15T16:18:53.066Z,5.20
2023-04-15T16:21:21.956Z,5.60
2023-04-15T16:23:51.778Z,5.10
2023-04-15T16:26:20.963Z,5.00
2023-04-15T16:28:51.633Z,5.90
2023-04-15T16:31:20.399Z,4.80
2023-04-15T16:33:50.917Z,4.40
2023-04-15T16:36:21.134Z,5.20
2023-04-15T16:38:49.514Z,4.60
2023-04-15T16:41:19.146Z,5.30
2023-04-15T16:43:47.851Z,5.50
2023-04-15T16:47:16.623Z,5.70
2023-04-15T16:50:38.283Z,6.10
2023-04-15T16:53:10.049Z,7.70
2023-04-15T16:55:40.415Z,6.80
2023-04-15T16:58:09.299Z,6.00
2023-04-15T17:00:37.807Z,6.10
2023-04-15T17:03:21.396Z,6.20
2023-04-15T17:05:50.039Z,16.80
2023-04-15T17:08:18.999Z,12.30
2023-04-15T17:10:47.684Z,7.30
2023-04-15T17:13:16.485Z,9.00
2023-04-15T17:15:45.116Z,9.10
2023-04-15T17:18:14.143Z,6.60
2023-04-15T17:21:10.623Z,6.10
2023-04-15T17:23:57.057Z,6.30
2023-04-15T17:26:53.421Z,5.30
2023-04-15T17:29:42.975Z,7.30
2023-04-15T17:32:17.200Z,6.50
2023-04-15T17:34:49.769Z,8.10
2023-04-15T17:37:19.802Z,8.00
2023-04-15T17:39:48.385Z,9.10
2023-04-15T17:42:17.866Z,8.20
2023-04-15T17:44:48.912Z,6.90
2023-04-15T17:47:18.416Z,7.60
2023-04-15T17:50:12.211Z,8.20
2023-04-15T17:52:40.721Z,7.00
2023-04-15T17:55:55.973Z,7.40
2023-04-15T17:59:13.604Z,7.10
2023-04-15T18:02:09.770Z,8.70
2023-04-15T18:04:51.588Z,8.80
2023-04-15T18:07:20.421Z,7.90
2023-04-15T18:10:23.785Z,9.00
2023-04-15T18:13:43.763Z,10.00
2023-04-15T18:16:17.340Z,9.40
2023-04-15T18:19:32.167Z,10.30
2023-04-15T18:22:07.312Z,9.80
2023-04-15T18:25:19.478Z,10.10
2023-04-15T18:28:38.573Z,9.10
2023-04-15T18:31:09.569Z,9.40
2023-04-15T18:34:23.846Z,12.20
2023-04-15T18:37:39.088Z,11.70
2023-04-15T18:40:55.670Z,11.60
2023-04-15T18:43:24.447Z,14.50
2023-04-15T18:45:57.384Z,11.20
2023-04-15T18:48:28.173Z,12.60
2023-04-15T18:51:01.985Z,10.00
2023-04-15T18:53:31.486Z,15.10
2023-04-15T18:56:25.561Z,13.20
2023-04-15T18:59:25.737Z,12.00
2023-04-15T19:01:42.904Z,14.40
2023-04-15T19:04:36.402Z,11.60
2023-04-15T19:07:05.752Z,13.00
2023-04-15T19:09:59.659Z,13.50
2023-04-15T19:12:30.804Z,14.40
2023-04-15T19:15:01.843Z,14.90
2023-04-15T19:17:30.460Z,14.10
2023-04-15T19:19:59.198Z,14.90
2023-04-15T19:22:41.329Z,16.50
2023-04-15T19:25:10.107Z,12.80
2023-04-15T19:27:38.771Z,19.20
2023-04-15T19:30:08.481Z,18.70
2023-04-15T19:33:26.747Z,11.90
2023-04-15T19:35:55.419Z,15.00
2023-04-15T19:38:27.895Z,14.30
2023-04-15T19:41:40.046Z,13.40
2023-04-15T19:44:16.877Z,13.80
2023-04-15T19:47:25.994Z,13.10
2023-04-15T19:49:54.592Z,14.20
2023-04-15T19:52:23.392Z,13.00
2023-04-15T19:54:51.900Z,14.60
2023-04-15T19:57:22.494Z,15.70
2023-04-15T20:00:00.299Z,18.60
2023-04-15T20:02:32.893Z,20.00
2023-04-15T20:05:10.361Z,16.50
2023-04-15T20:07:42.794Z,16.30
2023-04-15T20:10:13.674Z,18.80
2023-04-15T20:13:53.335Z,17.50
2023-04-15T20:16:23.139Z,20.10
2023-04-15T20:19:34.827Z,15.70
2023-04-15T20:22:07.345Z,17.90
2023-04-15T20:25:20.026Z,14.50
2023-04-15T20:27:54.127Z,16.70
2023-04-15T20:30:22.710Z,14.20
2023-04-15T20:33:18.122Z,12.10
2023-04-15T20:35:46.714Z,14.70
2023-04-15T20:38:16.654Z,11.10
2023-04-15T20:40:45.308Z,12.80
2023-04-15T20:43:13.946Z,11.40
2023-04-15T20:45:42.393Z,10.90
2023-04-15T20:48:36.367Z,10.30
2023-04-15T20:51:05.064Z,12.70
2023-04-15T20:53:33.718Z,12.40
2023-04-15T20:56:02.304Z,12.30
2023-04-15T20:58:30.682Z,15.50
2023-04-15T21:00:59.339Z,17.40
2023-04-15T21:03:28.322Z,15.70
2023-04-15T21:05:57.051Z,19.40
2023-04-15T21:08:29.799Z,17.30
2023-04-15T21:10:58.381Z,19.30
2023-04-15T21:13:27.223Z,19.10
2023-04-15T21:15:55.935Z,20.70
2023-04-15T21:18:24.591Z,17.70
2023-04-15T21:21:01.028Z,17.50
2023-04-15T21:23:30.240Z,16.10
2023-04-15T21:25:59.353Z,14.60
2023-04-15T21:28:28.621Z,18.10
2023-04-15T21:30:58.140Z,17.30
2023-04-15T21:33:27.331Z,18.50
2023-04-15T21:35:57.775Z,18.30
2023-04-15T21:38:26.135Z,20.80
2023-04-15T21:40:55.355Z,23.00
2023-04-15T21:43:49.433Z,18.50
2023-04-15T21:46:25.437Z,18.20
2023-04-15T21:49:07.333Z,16.70
2023-04-15T21:51:46.488Z,19.10
2023-04-15T21:54:16.217Z,17.70
2023-04-15T21:56:46.459Z,18.10
2023-04-15T21:59:15.463Z,18.70
2023-04-15T22:01:43.846Z,18.50
2023-04-15T22:04:15.691Z,16.00
2023-04-15T22:06:47.344Z,16.00
2023-04-15T22:09:23.785Z,16.80
2023-04-15T22:11:54.116Z,14.10
2023-04-15T22:14:22.933Z,14.60
2023-04-15T22:16:54.070Z,12.00
2023-04-15T22:19:23.552Z,15.00
2023-04-15T22:21:58.914Z,18.50
2023-04-15T22:24:39.973Z,14.00
2023-04-15T22:27:09.177Z,13.00
2023-04-15T22:29:37.647Z,17.70
2023-04-15T22:32:08.173Z,18.50
2023-04-15T22:34:38.692Z,14.00
2023-04-15T22:37:40.674Z,13.70
2023-04-15T22:40:11.593Z,12.20
2023-04-15T22:43:33.638Z,15.10
2023-04-15T22:46:47.793Z,13.90
2023-04-15T22:49:18.021Z,17.20
2023-04-15T22:52:33.862Z,16.00
2023-04-15T22:56:27.108Z,15.00
2023-04-15T22:59:07.059Z,15.30
2023-04-15T23:01:36.410Z,13.60
2023-04-15T23:04:25.637Z,14.30
2023-04-15T23:07:03.494Z,14.70
2023-04-15T23:09:32.607Z,13.60
2023-04-15T23:12:12.274Z,12.30
2023-04-15T23:15:07.060Z,13.50
2023-04-15T23:18:16.776Z,12.70
2023-04-15T23:21:36.688Z,13.90
2023-04-15T23:25:01.275Z,15.20
2023-04-15T23:29:46.496Z,13.60
2023-04-15T23:33:21.358Z,17.00
2023-04-15T23:36:27.349Z,17.70
2023-04-15T23:42:28.490Z,16.60
2023-04-15T23:44:57.923Z,15.90
2023-04-15T23:47:26.537Z,16.00
2023-04-15T23:50:04.610Z,16.80
2023-04-15T23:52:50.730Z,16.20
2023-04-15T23:55:57.680Z,16.60
2023-04-15T23:58:27.508Z,16.40
